»·PEaware :: AAY9065 KLAS-KSMX

AAY9065 :: KLAS-KSMX

FLIGHT INFORMATION

Flight Status: Arrived
Operator:
Allegiant Air
More flights by this operator :: More flights under this callsign
Pilot: Skye D. (10623)
Aircraft: AIRBUS A320
(A320)
More flights by this aircraft type
Origin: KLAS McCarran Intl
United States
Destination: KSMX Santa Maria Pub/Capt Hancock
United States
More flights between these airports :: More routes between these airports
Route: +BOACH8 HEC FIM RZS RZS286 KOAKS
File this flight plan on PilotEdge
Remarks:
Altitude:
(Current/Filed)
31,000ft
Speed:
(Current/Filed)
453kts
Departed: 27-Feb-18 02:39 PM
Arrived: 27-Feb-18 03:40 PM
Distance/Time
Traveled:
268nm/1:01
Distance/Time
To Go:
Arrived

Flight Plot

Page will automatically refresh every two minutes.

Flight plan parsing failed; only flown route is shown


Map Options




Map Legend


Flown Route
Filed Route
Departure Airport
Arrival Airport
Navaid (VOR, NDB)
Fix

Horizontal Profiles

Position Reports

Time Latitude Longitude Heading Altitude Ground
Speed
27-Feb-18 14:22 36.080250 -115.136133 61 2149ft 0kts
27-Feb-18 14:23 36.080250 -115.136133 61 2149ft 0kts
27-Feb-18 14:24 36.080250 -115.136133 61 2149ft 0kts
27-Feb-18 14:25 36.080250 -115.136133 61 2149ft 0kts
27-Feb-18 14:26 36.080250 -115.136133 61 2149ft 0kts
27-Feb-18 14:27 36.080250 -115.136133 61 2149ft 0kts
27-Feb-18 14:28 36.080250 -115.136133 61 2149ft 0kts
27-Feb-18 14:29 36.080250 -115.136133 61 2149ft 0kts
27-Feb-18 14:30 36.080250 -115.136133 61 2149ft 0kts
27-Feb-18 14:31 36.080250 -115.136133 61 2149ft 0kts
27-Feb-18 14:32 36.080250 -115.136133 61 2149ft 0kts
27-Feb-18 14:33 36.080250 -115.136133 61 2149ft 0kts
27-Feb-18 14:34 36.080250 -115.136133 61 2149ft 0kts
27-Feb-18 14:35 36.080231 -115.136179 58 2149ft 2kts
27-Feb-18 14:36 36.079968 -115.136664 57 2149ft 2kts
27-Feb-18 14:37 36.079851 -115.137121 137 2149ft 1kts
27-Feb-18 14:38 36.079886 -115.137158 135 2149ft 0kts
27-Feb-18 14:39 36.079886 -115.137158 135 2149ft 0kts
27-Feb-18 14:40 36.079239 -115.136380 135 2149ft 0kts
27-Feb-18 14:41 36.078994 -115.136085 135 2149ft 10kts
27-Feb-18 14:42 36.078212 -115.132019 88 2149ft 23kts
27-Feb-18 14:43 36.078262 -115.125480 92 2149ft 24kts
27-Feb-18 14:44 36.077690 -115.121850 131 2149ft 0kts
27-Feb-18 14:45 36.076450 -115.121457 238 2149ft 8kts
27-Feb-18 14:46 36.076376 -115.137170 270 2149ft 145kts
27-Feb-18 14:47 36.076527 -115.178421 271 3847ft 167kts
27-Feb-18 14:48 36.076395 -115.230305 267 5405ft 199kts
27-Feb-18 14:49 36.034406 -115.271217 202 7004ft 239kts
27-Feb-18 14:50 35.967142 -115.301352 187 9471ft 273kts
27-Feb-18 14:51 35.887820 -115.311128 184 10743ft 345kts
27-Feb-18 14:52 35.794928 -115.307767 174 14272ft 342kts
27-Feb-18 14:53 35.698836 -115.298658 185 16808ft 361kts
27-Feb-18 14:54 35.621151 -115.372364 223 18872ft 378kts
27-Feb-18 14:55 35.549841 -115.467163 224 20473ft 386kts
27-Feb-18 14:56 35.480270 -115.560094 224 22310ft 392kts
27-Feb-18 14:57 35.406226 -115.658733 224 24265ft 399kts
27-Feb-18 14:58 35.331780 -115.758487 224 26181ft 405kts
27-Feb-18 14:59 35.253386 -115.862353 225 27403ft 423kts
27-Feb-18 15:00 35.179812 -115.959532 225 29997ft 396kts
27-Feb-18 15:01 35.105781 -116.056997 225 29982ft 396kts
27-Feb-18 15:02 35.031248 -116.154855 225 29981ft 396kts
27-Feb-18 15:03 34.956880 -116.252217 225 29981ft 396kts
27-Feb-18 15:04 34.882325 -116.350214 226 29974ft 408kts
27-Feb-18 15:05 34.807149 -116.451091 234 29972ft 409kts
27-Feb-18 15:06 34.775748 -116.585497 254 29973ft 417kts
27-Feb-18 15:07 34.752261 -116.721080 254 29974ft 417kts
27-Feb-18 15:08 34.728743 -116.855456 254 29974ft 411kts
27-Feb-18 15:09 34.705072 -116.988866 254 29974ft 410kts
27-Feb-18 15:10 34.681103 -117.123079 254 29993ft 410kts
27-Feb-18 15:11 34.657615 -117.253988 254 29991ft 410kts
27-Feb-18 15:12 34.633337 -117.388403 256 29991ft 420kts
27-Feb-18 15:13 34.611243 -117.510036 256 28031ft 406kts
27-Feb-18 15:14 34.588191 -117.636115 256 25574ft 393kts
27-Feb-18 15:15 34.567049 -117.753062 256 23960ft 384kts
27-Feb-18 15:16 34.544849 -117.873284 257 23982ft 389kts
27-Feb-18 15:17 34.522136 -117.995435 257 23139ft 385kts
27-Feb-18 15:18 34.500727 -118.109843 257 22151ft 379kts
27-Feb-18 15:19 34.480953 -118.214965 256 20578ft 371kts
27-Feb-18 15:20 34.460006 -118.325687 257 18364ft 364kts
27-Feb-18 15:21 34.440534 -118.428139 257 16505ft 354kts
27-Feb-18 15:22 34.419572 -118.537426 257 14523ft 344kts
27-Feb-18 15:23 34.401663 -118.634201 257 13954ft 341kts
27-Feb-18 15:24 34.385255 -118.726070 257 13955ft 341kts
27-Feb-18 15:25 34.367671 -118.822634 257 14006ft 339kts
27-Feb-18 15:26 34.364779 -118.920875 282 14008ft 339kts
27-Feb-18 15:27 34.380717 -119.017354 282 14010ft 342kts
27-Feb-18 15:28 34.399129 -119.123797 283 14010ft 345kts
27-Feb-18 15:29 34.417685 -119.231047 283 13999ft 346kts
27-Feb-18 15:30 34.437330 -119.345229 284 14000ft 351kts
27-Feb-18 15:31 34.457071 -119.460546 284 14000ft 351kts
27-Feb-18 15:32 34.475979 -119.571692 284 13973ft 350kts
27-Feb-18 15:33 34.495044 -119.683625 284 13973ft 350kts
27-Feb-18 15:34 34.518671 -119.787816 304 13975ft 336kts
27-Feb-18 15:35 34.554979 -119.873557 300 13417ft 284kts
27-Feb-18 15:36 34.587061 -119.959418 298 11263ft 276kts
27-Feb-18 15:37 34.617545 -120.042680 297 8954ft 266kts
27-Feb-18 15:38 34.646603 -120.122412 297 6759ft 254kts
27-Feb-18 15:39 34.674553 -120.199293 296 4699ft 246kts
27-Feb-18 15:40 34.701958 -120.274933 297 3990ft 244kts
27-Feb-18 15:41 34.733134 -120.334172 335 3373ft 190kts
27-Feb-18 15:42 34.775261 -120.364395 333 2776ft 160kts
27-Feb-18 15:43 34.812050 -120.390098 332 2332ft 155kts
27-Feb-18 15:44 34.845791 -120.409323 336 1588ft 143kts
27-Feb-18 15:45 34.876518 -120.428634 331 763ft 141kts
27-Feb-18 15:46 34.899712 -120.453989 314 269ft 66kts
27-Feb-18 15:47 34.903167 -120.456624 45 269ft 0kts
27-Feb-18 15:48 34.903173 -120.456618 45 269ft 0kts
27-Feb-18 15:49 34.903179 -120.456613 45 269ft 0kts
27-Feb-18 15:50 34.901238 -120.453362 134 269ft 19kts
27-Feb-18 15:51 34.898738 -120.449192 51 269ft 5kts
27-Feb-18 15:52 34.898924 -120.448580 101 269ft 0kts
27-Feb-18 15:53 34.898924 -120.448580 101 269ft 0kts

Navigation Log

Ident Type
Flight plan parsing failed, navigation log unavailable